createdAt,value
2018-10-07T00:00:35.165Z,96.20
2018-10-07T00:01:35.157Z,96.00
2018-10-07T00:02:35.142Z,95.70
2018-10-07T00:03:35.134Z,95.80
2018-10-07T00:04:35.121Z,96.20
2018-10-07T00:05:35.112Z,96.51
2018-10-07T00:06:35.098Z,96.72
2018-10-07T00:07:35.089Z,96.82
2018-10-07T00:08:35.078Z,96.92
2018-10-07T00:09:35.068Z,97.13
2018-10-07T00:10:35.055Z,97.33
2018-10-07T00:11:35.046Z,96.61
2018-10-07T00:12:35.033Z,95.49
2018-10-07T00:13:35.024Z,94.26
2018-10-07T00:14:35.012Z,93.55
2018-10-07T00:15:35.002Z,93.80
2018-10-07T00:16:34.989Z,94.00
2018-10-07T00:17:34.978Z,94.62
2018-10-07T00:18:34.974Z,95.17
2018-10-07T00:19:34.957Z,95.78
2018-10-07T00:20:34.946Z,96.19
2018-10-07T00:21:34.935Z,96.81
2018-10-07T00:22:34.924Z,97.01
2018-10-07T00:23:34.913Z,97.48
2018-10-07T00:24:34.906Z,97.58
2018-10-07T00:25:34.892Z,97.58
2018-10-07T00:26:34.881Z,97.68
2018-10-07T00:27:34.869Z,97.89
2018-10-07T00:28:34.858Z,97.89
2018-10-07T00:29:34.851Z,97.94
2018-10-07T00:30:34.838Z,97.94
2018-10-07T00:31:34.825Z,97.84
2018-10-07T00:32:34.817Z,97.64
2018-10-07T00:33:34.807Z,97.23
2018-10-07T00:34:34.792Z,96.61
2018-10-07T00:35:34.792Z,96.00
2018-10-07T00:36:34.772Z,95.49
2018-10-07T00:37:34.760Z,94.88
2018-10-07T00:38:34.747Z,94.92
2018-10-07T00:39:34.739Z,95.03
2018-10-07T00:40:34.729Z,95.33
2018-10-07T00:41:34.718Z,95.84
2018-10-07T00:42:34.705Z,95.94
2018-10-07T00:43:34.692Z,96.25
2018-10-07T00:44:34.683Z,96.35
2018-10-07T00:45:34.675Z,96.35
2018-10-07T00:46:34.663Z,96.45
2018-10-07T00:47:34.650Z,96.25
2018-10-07T00:48:34.640Z,96.35
2018-10-07T00:49:34.627Z,96.45
2018-10-07T00:50:34.618Z,96.56
2018-10-07T00:51:34.607Z,96.86
2018-10-07T00:52:34.595Z,96.82
2018-10-07T00:53:34.582Z,96.82
2018-10-07T00:54:34.574Z,96.92
2018-10-07T00:55:34.562Z,96.82
2018-10-07T00:56:34.554Z,96.82
2018-10-07T00:57:34.541Z,97.02
2018-10-07T00:58:34.529Z,97.33
2018-10-07T00:59:34.519Z,97.54
2018-10-07T01:00:34.508Z,97.33
2018-10-07T01:01:34.498Z,97.23
2018-10-07T01:02:34.486Z,97.23
2018-10-07T01:03:34.474Z,97.33
2018-10-07T01:04:34.465Z,97.23
2018-10-07T01:05:34.454Z,97.08
2018-10-07T01:06:34.445Z,97.08
2018-10-07T01:07:34.433Z,96.88
2018-10-07T01:08:34.421Z,96.67
2018-10-07T01:09:34.422Z,96.57
2018-10-07T01:10:34.397Z,96.57
2018-10-07T01:11:34.387Z,96.47
2018-10-07T01:12:34.375Z,96.12
2018-10-07T01:13:34.364Z,96.22
2018-10-07T01:14:34.395Z,96.12
2018-10-07T01:15:34.343Z,95.56
2018-10-07T01:16:34.331Z,94.95
2018-10-07T01:17:34.321Z,94.44
2018-10-07T01:18:34.310Z,93.83
2018-10-07T01:19:34.296Z,93.52
2018-10-07T01:20:34.288Z,94.03
2018-10-07T01:21:34.285Z,93.83
2018-10-07T01:22:34.267Z,93.28
2018-10-07T01:23:34.254Z,92.76
2018-10-07T01:24:34.243Z,92.87
2018-10-07T01:25:34.234Z,92.91
2018-10-07T01:26:34.221Z,92.81
2018-10-07T01:27:34.211Z,92.91
2018-10-07T01:28:34.201Z,93.01
2018-10-07T01:29:34.187Z,93.21
2018-10-07T01:30:34.176Z,93.32
2018-10-07T01:31:34.169Z,93.67
2018-10-07T01:32:34.160Z,93.77
2018-10-07T01:33:34.147Z,93.87
2018-10-07T01:34:34.132Z,94.07
2018-10-07T01:35:34.122Z,94.18
2018-10-07T01:36:34.110Z,94.48
2018-10-07T01:37:34.101Z,94.59
2018-10-07T01:38:34.091Z,94.69
2018-10-07T01:39:34.081Z,94.69
2018-10-07T01:40:34.068Z,94.79
2018-10-07T01:41:34.057Z,95.00
2018-10-07T01:42:34.047Z,95.24
2018-10-07T01:43:34.037Z,95.34
2018-10-07T01:44:34.024Z,95.55
2018-10-07T01:45:34.012Z,95.55
2018-10-07T01:46:34.004Z,95.86
2018-10-07T01:47:33.991Z,95.95
2018-10-07T01:48:33.979Z,96.06
2018-10-07T01:49:33.971Z,96.06
2018-10-07T01:50:33.958Z,96.06
2018-10-07T01:51:33.948Z,95.86
2018-10-07T01:52:33.936Z,96.06
2018-10-07T01:53:33.927Z,96.27
2018-10-07T01:54:33.913Z,96.27
2018-10-07T01:55:33.904Z,96.27
2018-10-07T01:56:33.896Z,96.16
2018-10-07T01:57:33.880Z,96.16
2018-10-07T01:58:33.868Z,96.32
2018-10-07T01:59:33.861Z,96.42
2018-10-07T02:00:33.849Z,96.63
2018-10-07T02:01:33.840Z,96.07
2018-10-07T02:02:33.826Z,95.56
2018-10-07T02:03:33.817Z,95.05
2018-10-07T02:04:33.815Z,94.95
2018-10-07T02:05:33.798Z,94.75
2018-10-07T02:06:33.787Z,94.64
2018-10-07T02:07:33.772Z,94.64
2018-10-07T02:08:33.760Z,94.85
2018-10-07T02:09:33.749Z,95.15
2018-10-07T02:10:33.740Z,95.15
2018-10-07T02:11:33.727Z,95.20
2018-10-07T02:12:33.718Z,95.15
2018-10-07T02:13:33.705Z,95.46
2018-10-07T02:14:33.693Z,95.66
2018-10-07T02:15:33.686Z,96.17
2018-10-07T02:16:33.672Z,96.28
2018-10-07T02:17:33.668Z,96.07
2018-10-07T02:18:33.649Z,96.38
2018-10-07T02:19:33.638Z,95.92
2018-10-07T02:20:33.630Z,95.62
2018-10-07T02:21:33.617Z,96.03
2018-10-07T02:22:33.605Z,95.92
2018-10-07T02:23:33.594Z,95.42
2018-10-07T02:24:33.583Z,94.90
2018-10-07T02:25:33.574Z,94.90
2018-10-07T02:26:33.562Z,95.11
2018-10-07T02:27:33.549Z,95.11
2018-10-07T02:28:33.538Z,95.15
2018-10-07T02:29:33.529Z,95.46
2018-10-07T02:30:33.524Z,96.02
2018-10-07T02:31:33.511Z,96.22
2018-10-07T02:32:33.496Z,96.42
2018-10-07T02:33:33.485Z,96.63
2018-10-07T02:34:33.474Z,96.52
2018-10-07T02:35:33.470Z,96.63
2018-10-07T02:36:33.451Z,96.63
2018-10-07T02:37:33.443Z,96.52
2018-10-07T02:38:33.430Z,96.52
2018-10-07T02:39:33.420Z,96.52
2018-10-07T02:40:33.408Z,96.52
2018-10-07T02:41:33.398Z,96.63
2018-10-07T02:42:33.387Z,96.73
2018-10-07T02:43:33.376Z,96.93
2018-10-07T02:44:33.363Z,96.63
2018-10-07T02:45:33.355Z,96.58
2018-10-07T02:46:33.341Z,96.52
2018-10-07T02:47:33.330Z,96.48
2018-10-07T02:48:33.320Z,96.58
2018-10-07T02:49:33.308Z,96.48
2018-10-07T02:50:33.299Z,96.52
2018-10-07T02:51:33.287Z,96.68
2018-10-07T02:52:33.278Z,96.68
2018-10-07T02:53:33.265Z,96.58
2018-10-07T02:54:33.252Z,96.12
2018-10-07T02:55:33.242Z,96.02
2018-10-07T02:56:33.232Z,95.91
2018-10-07T02:57:33.225Z,96.02
2018-10-07T02:58:33.209Z,96.02
2018-10-07T02:59:33.201Z,95.91
2018-10-07T03:00:33.191Z,95.71
2018-10-07T03:01:33.175Z,96.02
2018-10-07T03:02:33.166Z,96.12
2018-10-07T03:03:33.157Z,96.22
2018-10-07T03:04:33.153Z,96.63
2018-10-07T03:05:33.133Z,96.83
2018-10-07T03:06:33.121Z,97.08
2018-10-07T03:07:33.114Z,96.98
2018-10-07T03:08:33.101Z,96.98
2018-10-07T03:09:33.095Z,96.88
2018-10-07T03:10:33.077Z,96.67
2018-10-07T03:11:33.068Z,96.77
2018-10-07T03:12:33.060Z,97.08
2018-10-07T03:13:33.046Z,97.39
2018-10-07T03:14:33.035Z,97.39
2018-10-07T03:15:33.022Z,97.18
2018-10-07T03:16:33.012Z,96.88
2018-10-07T03:17:33.000Z,96.67
2018-10-07T03:18:32.990Z,96.57
2018-10-07T03:19:32.981Z,96.57
2018-10-07T03:20:32.969Z,96.47
2018-10-07T03:21:32.957Z,96.72
2018-10-07T03:22:32.946Z,96.88
2018-10-07T03:23:32.935Z,96.92
2018-10-07T03:24:32.925Z,97.13
2018-10-07T03:25:32.913Z,97.13
2018-10-07T03:26:32.901Z,97.13
2018-10-07T03:27:32.891Z,96.92
2018-10-07T03:28:32.880Z,96.72
2018-10-07T03:29:33.006Z,96.82
2018-10-07T03:30:32.861Z,97.23
2018-10-07T03:31:32.850Z,97.74
2018-10-07T03:32:32.847Z,98.05
2018-10-07T03:33:32.828Z,98.15
2018-10-07T03:34:32.814Z,97.84
2018-10-07T03:35:32.803Z,97.64
2018-10-07T03:36:32.799Z,97.54
2018-10-07T03:37:32.780Z,97.43
2018-10-07T03:38:32.769Z,97.43
2018-10-07T03:39:32.760Z,97.54
2018-10-07T03:40:32.748Z,97.43
2018-10-07T03:41:32.735Z,97.33
2018-10-07T03:42:32.727Z,97.43
2018-10-07T03:43:32.715Z,97.43
2018-10-07T03:44:32.705Z,97.59
2018-10-07T03:45:32.692Z,97.49
2018-10-07T03:46:32.683Z,96.98
2018-10-07T03:47:32.672Z,96.88
2018-10-07T03:48:32.664Z,96.67
2018-10-07T03:49:32.649Z,96.72
2018-10-07T03:50:32.639Z,96.61
2018-10-07T03:51:32.628Z,96.72
2018-10-07T03:52:32.620Z,96.72
2018-10-07T03:53:32.605Z,96.82
2018-10-07T03:54:32.592Z,96.72
2018-10-07T03:55:32.585Z,96.61
2018-10-07T03:56:32.570Z,96.72
2018-10-07T03:57:32.561Z,96.92
2018-10-07T03:58:32.549Z,97.02
2018-10-07T03:59:32.539Z,97.23
2018-10-07T04:00:32.528Z,97.33
2018-10-07T04:01:32.516Z,97.23
2018-10-07T04:02:32.508Z,97.23
2018-10-07T04:03:32.499Z,97.23
2018-10-07T04:04:32.491Z,97.02
2018-10-07T04:05:32.471Z,96.82
2018-10-07T04:06:32.465Z,96.51
2018-10-07T04:07:32.451Z,96.41
2018-10-07T04:08:32.440Z,96.35
2018-10-07T04:09:32.432Z,96.35
2018-10-07T04:10:32.421Z,96.45
2018-10-07T04:11:32.407Z,96.25
2018-10-07T04:12:32.396Z,96.25
2018-10-07T04:13:32.387Z,96.76
2018-10-07T04:14:32.375Z,96.97
2018-10-07T04:15:32.364Z,97.27
2018-10-07T04:16:32.353Z,97.38
2018-10-07T04:17:32.343Z,97.48
2018-10-07T04:18:32.332Z,97.48
2018-10-07T04:19:32.319Z,97.48
2018-10-07T04:20:32.308Z,97.38
2018-10-07T04:21:32.344Z,97.48
2018-10-07T04:22:32.286Z,97.38
2018-10-07T04:23:32.273Z,97.38
2018-10-07T04:24:32.264Z,97.17
2018-10-07T04:25:32.263Z,96.86
2018-10-07T04:26:32.240Z,96.66
2018-10-07T04:27:32.232Z,96.66
2018-10-07T04:28:32.219Z,97.07
2018-10-07T04:29:32.207Z,97.38
2018-10-07T04:30:32.200Z,97.48
2018-10-07T04:31:32.188Z,97.58
2018-10-07T04:32:32.174Z,97.89
2018-10-07T04:33:32.168Z,97.99
2018-10-07T04:34:32.155Z,98.19
2018-10-07T04:35:32.142Z,98.29
2018-10-07T04:36:32.131Z,98.40
2018-10-07T04:37:32.121Z,98.50
2018-10-07T04:38:32.109Z,98.50
2018-10-07T04:39:32.099Z,98.40
2018-10-07T04:40:32.089Z,98.40
2018-10-07T04:41:32.081Z,98.50
2018-10-07T04:42:32.066Z,98.45
2018-10-07T04:43:32.056Z,98.45
2018-10-07T04:44:32.044Z,98.35
2018-10-07T04:45:32.031Z,97.64
2018-10-07T04:46:32.088Z,96.41
2018-10-07T04:47:32.011Z,96.41
2018-10-07T04:48:31.999Z,96.51
2018-10-07T04:49:31.987Z,96.51
2018-10-07T04:50:31.979Z,96.20
2018-10-07T04:51:31.971Z,96.41
2018-10-07T04:52:32.009Z,96.51
2018-10-07T04:53:31.955Z,96.31
2018-10-07T04:54:31.938Z,96.45
2018-10-07T04:55:31.925Z,96.25
2018-10-07T04:56:31.911Z,96.45
2018-10-07T04:57:31.899Z,96.86
2018-10-07T04:58:31.889Z,96.97
2018-10-07T04:59:31.880Z,96.66
2018-10-07T05:00:31.867Z,96.45
2018-10-07T05:01:31.857Z,96.56
2018-10-07T05:02:31.847Z,96.56
2018-10-07T05:03:31.835Z,96.66
2018-10-07T05:04:31.834Z,96.76
2018-10-07T05:05:31.814Z,96.82
2018-10-07T05:06:31.802Z,96.82
2018-10-07T05:07:31.790Z,96.72
2018-10-07T05:08:31.778Z,96.61
2018-10-07T05:09:31.771Z,96.51
2018-10-07T05:10:31.762Z,96.41
2018-10-07T05:11:31.746Z,96.20
2018-10-07T05:12:31.758Z,96.11
2018-10-07T05:13:31.724Z,96.11
2018-10-07T05:14:31.717Z,96.06
2018-10-07T05:15:31.710Z,95.95
2018-10-07T05:16:31.690Z,95.86
2018-10-07T05:17:31.680Z,95.86
2018-10-07T05:18:31.667Z,95.75
2018-10-07T05:19:31.664Z,95.65
2018-10-07T05:20:31.654Z,95.45
2018-10-07T05:21:31.635Z,95.24
2018-10-07T05:22:31.624Z,95.14
2018-10-07T05:23:31.616Z,95.34
2018-10-07T05:24:31.604Z,95.34
2018-10-07T05:25:31.592Z,95.30
2018-10-07T05:26:31.583Z,95.20
2018-10-07T05:27:31.569Z,95.20
2018-10-07T05:28:31.558Z,95.20
2018-10-07T05:29:31.547Z,95.50
2018-10-07T05:30:31.539Z,95.75
2018-10-07T05:31:31.526Z,95.86
2018-10-07T05:32:31.516Z,95.91
2018-10-07T05:33:31.621Z,96.02
2018-10-07T05:34:31.491Z,96.02
2018-10-07T05:35:31.482Z,95.91
2018-10-07T05:36:31.473Z,95.81
2018-10-07T05:37:31.462Z,95.91
2018-10-07T05:38:31.450Z,95.71
2018-10-07T05:39:31.440Z,95.71
2018-10-07T05:40:31.428Z,95.71
2018-10-07T05:41:31.416Z,96.27
2018-10-07T05:42:31.403Z,96.57
2018-10-07T05:43:31.395Z,96.67
2018-10-07T05:44:31.616Z,96.77
2018-10-07T05:45:31.373Z,96.98
2018-10-07T05:46:31.359Z,97.08
2018-10-07T05:47:31.350Z,97.18
2018-10-07T05:48:31.341Z,97.08
2018-10-07T05:49:31.330Z,96.67
2018-10-07T05:50:31.316Z,96.22
2018-10-07T05:51:31.308Z,96.06
2018-10-07T05:52:31.295Z,95.95
2018-10-07T05:53:31.284Z,96.22
2018-10-07T05:54:31.275Z,96.22
2018-10-07T05:55:31.281Z,96.12
2018-10-07T05:56:31.251Z,96.02
2018-10-07T05:57:31.246Z,95.91
2018-10-07T05:58:31.230Z,95.61
2018-10-07T05:59:31.218Z,95.50
2018-10-07T06:00:31.208Z,95.86
2018-10-07T06:01:31.229Z,96.47
2018-10-07T06:02:31.185Z,96.67
2018-10-07T06:03:31.175Z,96.98
2018-10-07T06:04:31.161Z,97.39
2018-10-07T06:05:31.151Z,97.69
2018-10-07T06:06:31.142Z,97.59
2018-10-07T06:07:31.130Z,97.59
2018-10-07T06:08:31.120Z,97.69
2018-10-07T06:09:31.109Z,97.80
2018-10-07T06:10:31.098Z,97.75
2018-10-07T06:11:31.084Z,97.44
2018-10-07T06:12:31.076Z,97.44
2018-10-07T06:13:31.066Z,97.75
2018-10-07T06:14:31.052Z,98.16
2018-10-07T06:15:31.043Z,98.36
2018-10-07T06:16:31.035Z,98.57
2018-10-07T06:17:31.020Z,98.57
2018-10-07T06:18:31.008Z,98.67
2018-10-07T06:19:30.996Z,98.77
2018-10-07T06:20:30.990Z,98.87
2018-10-07T06:21:31.045Z,99.07
2018-10-07T06:22:30.965Z,99.07
2018-10-07T06:23:30.953Z,98.98
2018-10-07T06:24:30.943Z,98.93
2018-10-07T06:25:30.930Z,98.62
2018-10-07T06:26:30.920Z,98.42
2018-10-07T06:27:30.908Z,98.62
2018-10-07T06:28:30.898Z,98.73
2018-10-07T06:29:30.889Z,98.73
2018-10-07T06:30:30.881Z,98.52
2018-10-07T06:31:30.866Z,98.42
2018-10-07T06:32:30.855Z,98.32
2018-10-07T06:33:30.846Z,98.42
2018-10-07T06:34:30.832Z,98.37
2018-10-07T06:35:30.821Z,98.11
2018-10-07T06:36:30.810Z,97.91
2018-10-07T06:37:30.800Z,98.11
2018-10-07T06:38:30.789Z,98.11
2018-10-07T06:39:30.778Z,98.11
2018-10-07T06:40:30.771Z,98.26
2018-10-07T06:41:30.760Z,98.67
2018-10-07T06:42:30.747Z,98.77
2018-10-07T06:43:30.742Z,98.87
2018-10-07T06:44:30.720Z,98.82
2018-10-07T06:45:30.749Z,98.73
2018-10-07T06:46:30.704Z,99.03
2018-10-07T06:47:30.688Z,98.82
2018-10-07T06:48:30.679Z,98.82
2018-10-07T06:49:30.668Z,98.93
2018-10-07T06:50:30.656Z,98.82
2018-10-07T06:51:30.645Z,98.82
2018-10-07T06:52:30.634Z,98.82
2018-10-07T06:53:30.622Z,98.93
2018-10-07T06:54:30.614Z,98.82
2018-10-07T06:55:30.600Z,99.13
2018-10-07T06:56:30.595Z,99.13
2018-10-07T06:57:30.578Z,99.13
2018-10-07T06:58:30.570Z,99.23
2018-10-07T06:59:30.619Z,99.23
2018-10-07T07:00:30.545Z,99.13
2018-10-07T07:01:30.535Z,99.03
2018-10-07T07:02:30.524Z,99.23
2018-10-07T07:03:30.516Z,99.34
2018-10-07T07:04:30.505Z,99.29
2018-10-07T07:05:30.496Z,99.29
2018-10-07T07:06:30.535Z,98.98
2018-10-07T07:07:30.469Z,98.88
2018-10-07T07:08:30.459Z,98.57
2018-10-07T07:09:30.447Z,98.57
2018-10-07T07:10:30.435Z,98.48
2018-10-07T07:11:30.425Z,98.57
2018-10-07T07:12:30.413Z,98.68
2018-10-07T07:13:30.407Z,98.68
2018-10-07T07:14:30.394Z,98.73
2018-10-07T07:15:30.380Z,98.43
2018-10-07T07:16:30.370Z,98.12
2018-10-07T07:17:30.359Z,97.92
2018-10-07T07:18:30.347Z,97.71
2018-10-07T07:19:30.337Z,97.71
2018-10-07T07:20:30.326Z,97.82
2018-10-07T07:21:30.313Z,97.82
2018-10-07T07:22:30.305Z,97.61
2018-10-07T07:23:30.293Z,97.51
2018-10-07T07:24:30.286Z,97.41
2018-10-07T07:25:30.272Z,97.41
2018-10-07T07:26:30.260Z,97.61
2018-10-07T07:27:30.259Z,97.92
2018-10-07T07:28:30.238Z,97.71
2018-10-07T07:29:30.230Z,97.92
2018-10-07T07:30:30.217Z,98.12
2018-10-07T07:31:30.324Z,98.32
2018-10-07T07:32:30.194Z,98.32
2018-10-07T07:33:30.182Z,98.43
2018-10-07T07:34:30.172Z,98.63
2018-10-07T07:35:30.163Z,98.12
2018-10-07T07:36:30.152Z,98.27
2018-10-07T07:37:30.139Z,98.37
2018-10-07T07:38:30.128Z,98.68
2018-10-07T07:39:30.118Z,98.68
2018-10-07T07:40:30.107Z,98.78
2018-10-07T07:41:30.096Z,98.68
2018-10-07T07:42:30.192Z,98.27
2018-10-07T07:43:30.072Z,98.37
2018-10-07T07:44:30.061Z,98.48
2018-10-07T07:45:30.051Z,98.68
2018-10-07T07:46:30.041Z,98.68
2018-10-07T07:47:30.029Z,98.88
2018-10-07T07:48:30.018Z,99.09
2018-10-07T07:49:30.011Z,99.19
2018-10-07T07:50:29.997Z,99.09
2018-10-07T07:51:29.985Z,98.98
2018-10-07T07:52:29.973Z,98.63
2018-10-07T07:53:29.966Z,97.61
2018-10-07T07:54:29.954Z,96.69
2018-10-07T07:55:29.940Z,96.45
2018-10-07T07:56:29.930Z,95.33
2018-10-07T07:57:29.919Z,95.73
2018-10-07T07:58:29.908Z,96.45
2018-10-07T07:59:29.897Z,95.83
2018-10-07T08:00:29.889Z,94.82
2018-10-07T08:01:29.877Z,94.61
2018-10-07T08:02:29.868Z,93.29
2018-10-07T08:03:29.856Z,93.55
2018-10-07T08:04:29.841Z,93.45
2018-10-07T08:05:29.832Z,93.96
2018-10-07T08:06:29.822Z,92.53
2018-10-07T08:07:29.809Z,93.04
2018-10-07T08:08:29.800Z,93.24
2018-10-07T08:09:29.792Z,92.94
2018-10-07T08:10:29.781Z,93.55
2018-10-07T08:11:29.768Z,93.24
2018-10-07T08:12:29.755Z,92.63
2018-10-07T08:13:29.747Z,92.84
2018-10-07T08:14:29.735Z,92.23
2018-10-07T08:15:29.723Z,92.13
2018-10-07T08:16:29.711Z,92.23
2018-10-07T08:17:29.800Z,91.61
2018-10-07T08:18:29.691Z,92.23
2018-10-07T08:19:29.679Z,92.33
2018-10-07T08:20:29.669Z,92.23
2018-10-07T08:21:29.655Z,92.63
2018-10-07T08:22:29.646Z,91.61
2018-10-07T08:23:29.702Z,92.43
2018-10-07T08:24:29.627Z,92.13
2018-10-07T08:25:29.613Z,91.35
2018-10-07T08:26:29.602Z,90.64
2018-10-07T08:27:29.590Z,91.66
2018-10-07T08:28:29.579Z,90.24
2018-10-07T08:29:29.630Z,90.58
2018-10-07T08:30:29.558Z,90.68
2018-10-07T08:31:29.594Z,91.40
2018-10-07T08:32:29.535Z,91.91
2018-10-07T08:33:29.528Z,90.31
2018-10-07T08:34:29.516Z,90.01
2018-10-07T08:35:29.504Z,88.59
2018-10-07T08:36:29.494Z,89.09
2018-10-07T08:37:29.481Z,88.79
2018-10-07T08:38:29.478Z,89.70
2018-10-07T08:39:29.464Z,86.14
2018-10-07T08:40:29.448Z,87.87
2018-10-07T08:41:29.435Z,87.67
2018-10-07T08:42:29.429Z,89.30
2018-10-07T08:43:29.413Z,87.56
2018-10-07T08:44:29.403Z,87.36
2018-10-07T08:45:29.392Z,87.06
2018-10-07T08:46:29.382Z,87.36
2018-10-07T08:47:29.370Z,86.85
2018-10-07T08:48:29.358Z,88.38
2018-10-07T08:49:29.348Z,87.77
2018-10-07T08:50:29.340Z,87.97
2018-10-07T08:51:29.325Z,88.99
2018-10-07T08:52:29.315Z,87.97
2018-10-07T08:53:29.303Z,88.38
2018-10-07T08:54:29.294Z,87.46
2018-10-07T08:55:29.281Z,87.26
2018-10-07T08:56:29.294Z,87.32
2018-10-07T08:57:29.261Z,86.40
2018-10-07T08:58:29.249Z,86.40
2018-10-07T08:59:29.238Z,87.01
2018-10-07T09:00:29.226Z,88.24
2018-10-07T09:01:29.216Z,88.34
2018-10-07T09:02:29.204Z,88.81
2018-10-07T09:03:29.193Z,87.89
2018-10-07T09:04:29.184Z,84.94
2018-10-07T09:05:29.176Z,83.45
2018-10-07T09:06:29.164Z,84.77
2018-10-07T09:07:29.150Z,84.47
2018-10-07T09:08:29.138Z,83.95
2018-10-07T09:09:29.129Z,86.10
2018-10-07T09:10:29.117Z,86.30
2018-10-07T09:11:29.107Z,85.38
2018-10-07T09:12:29.094Z,84.27
2018-10-07T09:13:29.083Z,84.97
2018-10-07T09:14:29.118Z,85.28
2018-10-07T09:15:29.063Z,86.98
2018-10-07T09:16:29.051Z,82.59
2018-10-07T09:17:29.050Z,82.86
2018-10-07T09:18:29.033Z,83.88
2018-10-07T09:19:29.017Z,83.88
2018-10-07T09:20:29.006Z,83.94
2018-10-07T09:21:29.000Z,84.14
2018-10-07T09:22:28.985Z,81.29
2018-10-07T09:23:28.973Z,81.81
2018-10-07T09:24:28.963Z,81.13
2018-10-07T09:25:28.953Z,81.34
2018-10-07T09:26:28.942Z,81.90
2018-10-07T09:27:28.961Z,81.29
2018-10-07T09:28:28.918Z,81.74
2018-10-07T09:29:28.908Z,81.74
2018-10-07T09:30:28.901Z,82.35
2018-10-07T09:31:28.888Z,81.64
2018-10-07T09:32:28.998Z,82.56
2018-10-07T09:33:28.865Z,80.11
2018-10-07T09:34:28.853Z,81.50
2018-10-07T09:35:28.841Z,80.68
2018-10-07T09:36:28.833Z,80.18
2018-10-07T09:37:28.823Z,81.34
2018-10-07T09:38:28.809Z,81.43
2018-10-07T09:39:28.814Z,81.27
2018-10-07T09:40:28.788Z,81.82
2018-10-07T09:41:28.775Z,82.02
2018-10-07T09:42:28.766Z,83.34
2018-10-07T09:43:28.760Z,83.45
2018-10-07T09:44:28.742Z,82.94
2018-10-07T09:45:28.733Z,82.23
2018-10-07T09:46:28.725Z,80.90
2018-10-07T09:47:28.710Z,82.12
2018-10-07T09:48:28.724Z,81.21
2018-10-07T09:49:28.688Z,82.73
2018-10-07T09:50:28.677Z,81.31
2018-10-07T09:51:28.665Z,82.02
2018-10-07T09:52:28.727Z,82.33
2018-10-07T09:53:28.645Z,80.90
2018-10-07T09:54:28.634Z,82.39
2018-10-07T09:55:28.624Z,81.10
2018-10-07T09:56:28.616Z,81.98
2018-10-07T09:57:28.601Z,82.15
2018-10-07T09:58:28.592Z,80.82
2018-10-07T09:59:28.581Z,81.34
2018-10-07T10:00:28.568Z,81.23
2018-10-07T10:01:28.560Z,80.82
2018-10-07T10:02:28.549Z,80.62
2018-10-07T10:03:28.538Z,80.21
2018-10-07T10:04:28.610Z,80.32
2018-10-07T10:05:28.514Z,80.11
2018-10-07T10:06:28.502Z,81.43
2018-10-07T10:07:28.492Z,80.52
2018-10-07T10:08:28.480Z,81.03
2018-10-07T10:09:28.471Z,81.23
2018-10-07T10:10:28.459Z,81.34
2018-10-07T10:11:28.452Z,80.35
2018-10-07T10:12:28.437Z,81.88
2018-10-07T10:13:28.426Z,82.80
2018-10-07T10:14:28.416Z,83.27
2018-10-07T10:15:28.402Z,83.74
2018-10-07T10:16:28.394Z,82.72
2018-10-07T10:17:28.433Z,80.07
2018-10-07T10:18:28.375Z,80.82
2018-10-07T10:19:28.418Z,82.04
2018-10-07T10:20:28.349Z,81.81
2018-10-07T10:21:28.339Z,80.48
2018-10-07T10:22:28.327Z,77.83
2018-10-07T10:23:28.316Z,78.96
2018-10-07T10:24:28.303Z,77.77
2018-10-07T10:25:28.292Z,77.94
2018-10-07T10:26:28.284Z,78.65
2018-10-07T10:27:28.271Z,76.61
2018-10-07T10:28:28.261Z,77.33
2018-10-07T10:29:28.249Z,77.87
2018-10-07T10:30:28.240Z,78.38
2018-10-07T10:31:28.229Z,77.56
2018-10-07T10:32:28.217Z,78.24
2018-10-07T10:33:28.205Z,78.55
2018-10-07T10:34:28.196Z,77.94
2018-10-07T10:35:28.184Z,77.63
2018-10-07T10:36:28.175Z,77.22
2018-10-07T10:37:28.162Z,77.43
2018-10-07T10:38:28.151Z,76.89
2018-10-07T10:39:28.179Z,77.02
2018-10-07T10:40:28.130Z,77.63
2018-10-07T10:41:28.120Z,77.90
2018-10-07T10:42:28.109Z,77.46
2018-10-07T10:43:28.098Z,77.16
2018-10-07T10:44:28.088Z,78.64
2018-10-07T10:45:28.073Z,77.89
2018-10-07T10:46:28.063Z,78.00
2018-10-07T10:47:28.053Z,75.93
2018-10-07T10:48:28.041Z,76.91
2018-10-07T10:49:28.033Z,74.37
2018-10-07T10:50:28.021Z,75.28
2018-10-07T10:51:28.009Z,73.76
2018-10-07T10:52:27.996Z,72.85
2018-10-07T10:53:27.989Z,75.18
2018-10-07T10:54:27.979Z,73.49
2018-10-07T10:55:27.966Z,72.68
2018-10-07T10:56:27.954Z,73.08
2018-10-07T10:57:27.945Z,74.61
2018-10-07T10:58:27.933Z,72.54
2018-10-07T10:59:27.922Z,73.87
2018-10-07T11:00:27.912Z,73.66
2018-10-07T11:01:27.900Z,72.54
2018-10-07T11:02:27.891Z,73.26
2018-10-07T11:03:27.881Z,73.66
2018-10-07T11:04:27.909Z,72.34
2018-10-07T11:05:27.858Z,73.63
2018-10-07T11:06:27.846Z,72.31
2018-10-07T11:07:27.838Z,72.00
2018-10-07T11:08:27.823Z,71.50
2018-10-07T11:09:27.814Z,70.08
2018-10-07T11:10:27.804Z,70.38
2018-10-07T11:11:27.800Z,70.58
2018-10-07T11:12:27.783Z,70.08
2018-10-07T11:13:27.769Z,73.12
2018-10-07T11:14:27.762Z,70.45
2018-10-07T11:15:27.813Z,69.54
2018-10-07T11:16:27.736Z,69.43
2018-10-07T11:17:27.728Z,70.95
2018-10-07T11:18:27.716Z,70.95
2018-10-07T11:19:27.767Z,70.75
2018-10-07T11:20:27.693Z,69.13
2018-10-07T11:21:27.683Z,70.65
2018-10-07T11:22:27.674Z,69.50
2018-10-07T11:23:27.663Z,70.31
2018-10-07T11:24:27.651Z,70.72
2018-10-07T11:25:27.642Z,67.98
2018-10-07T11:26:27.633Z,66.77
2018-10-07T11:27:27.619Z,67.27
2018-10-07T11:28:27.607Z,68.79
2018-10-07T11:29:27.598Z,66.80
2018-10-07T11:30:27.586Z,66.90
2018-10-07T11:31:27.577Z,67.00
2018-10-07T11:32:27.562Z,67.81
2018-10-07T11:33:27.555Z,68.22
2018-10-07T11:34:27.546Z,67.51
2018-10-07T11:35:27.530Z,67.30
2018-10-07T11:36:27.525Z,67.00
2018-10-07T11:37:27.509Z,67.41
2018-10-07T11:38:27.499Z,68.73
2018-10-07T11:39:27.486Z,68.62
2018-10-07T11:40:27.477Z,68.62
2018-10-07T11:41:27.467Z,68.93
2018-10-07T11:42:27.454Z,70.95
2018-10-07T11:43:27.454Z,69.94
2018-10-07T11:44:27.433Z,69.23
2018-10-07T11:45:27.420Z,66.90
2018-10-07T11:46:27.415Z,68.62
2018-10-07T11:47:27.399Z,67.61
2018-10-07T11:48:27.390Z,67.21
2018-10-07T11:49:27.380Z,66.83
2018-10-07T11:50:27.369Z,69.06
2018-10-07T11:51:27.357Z,69.16
2018-10-07T11:52:27.345Z,66.43
2018-10-07T11:53:27.334Z,67.61
2018-10-07T11:54:27.323Z,66.49
2018-10-07T11:55:27.315Z,68.73
2018-10-07T11:56:27.304Z,68.32
2018-10-07T11:57:27.292Z,65.99
2018-10-07T11:58:27.282Z,66.46
2018-10-07T11:59:27.271Z,65.75
2018-10-07T12:00:27.262Z,68.59
2018-10-07T12:01:27.249Z,68.18
2018-10-07T12:02:27.238Z,67.07
2018-10-07T12:03:27.227Z,66.46
2018-10-07T12:04:27.215Z,65.62
2018-10-07T12:05:27.207Z,66.83
2018-10-07T12:06:27.193Z,66.13
2018-10-07T12:07:27.183Z,67.85
2018-10-07T12:08:27.173Z,64.10
2018-10-07T12:09:27.161Z,66.13
2018-10-07T12:10:27.148Z,66.94
2018-10-07T12:11:27.139Z,65.11
2018-10-07T12:12:27.128Z,63.19
2018-10-07T12:13:27.117Z,63.70
2018-10-07T12:14:27.105Z,64.17
2018-10-07T12:15:27.096Z,64.91
2018-10-07T12:16:27.147Z,66.83
2018-10-07T12:17:27.077Z,66.91
2018-10-07T12:18:27.062Z,63.56
2018-10-07T12:19:27.053Z,62.56
2018-10-07T12:20:27.043Z,64.25
2018-10-07T12:21:27.031Z,64.65
2018-10-07T12:22:27.019Z,62.73
2018-10-07T12:23:27.009Z,63.94
2018-10-07T12:24:26.996Z,65.56
2018-10-07T12:25:26.986Z,63.33
2018-10-07T12:26:26.979Z,64.14
2018-10-07T12:27:26.966Z,62.53
2018-10-07T12:28:26.953Z,63.64
2018-10-07T12:29:26.941Z,64.25
2018-10-07T12:30:26.933Z,63.74
2018-10-07T12:31:26.922Z,63.94
2018-10-07T12:32:26.911Z,64.65
2018-10-07T12:33:26.897Z,63.94
2018-10-07T12:34:26.889Z,63.84
2018-10-07T12:35:26.878Z,64.28
2018-10-07T12:36:26.866Z,63.67
2018-10-07T12:37:26.856Z,64.48
2018-10-07T12:38:26.847Z,64.58
2018-10-07T12:39:26.839Z,64.78
2018-10-07T12:40:26.824Z,65.45
2018-10-07T12:41:26.815Z,66.36
2018-10-07T12:42:26.799Z,66.49
2018-10-07T12:43:26.793Z,67.10
2018-10-07T12:44:26.780Z,65.75
2018-10-07T12:45:26.804Z,67.88
2018-10-07T12:46:26.758Z,65.96
2018-10-07T12:47:26.747Z,64.94
2018-10-07T12:48:26.736Z,65.42
2018-10-07T12:49:26.728Z,65.22
2018-10-07T12:50:26.713Z,65.62
2018-10-07T12:51:26.705Z,65.11
2018-10-07T12:52:26.692Z,64.10